| time (UTC) | temp C | wind direction | speed KPH | gust KPH | rain 1hr cm | rain 24hr cm | rain mn cm | humidity % | barometer mb |
| 20260507031909 | 10 | 290 | 14.5 | 0.0 | 0.00 | 0.00 | 0.00 | 99 | |
| 20260507021909 | 11 | 280 | 3.2 | 0.0 | 0.00 | 0.00 | 0.00 | 93 | |
| 20260507012018 | 12 | 350 | 3.2 | 0.0 | 0.00 | 0.00 | 0.00 | 93 | |
| 20260507001909 | 12 | 310 | 3.2 | 0.0 | 0.00 | 0.00 | 0.00 | 93 | |
| 20260506231909 | 12 | 0 | 0.0 | 0.0 | 0.00 | 0.00 | 0.00 | 93 | |
| 20260506222108 | 12 | 270 | 11.3 | 0.0 | 0.00 | 0.00 | 0.00 | 87 | |
| 20260506211909 | 12 | 310 | 8.0 | 0.0 | 0.00 | 0.00 | 0.00 | 87 | |
| 20260506201941 | 15 | 310 | 8.0 | 0.0 | 0.00 | 0.00 | 0.00 | 77 | |
| 20260506192100 | 15 | 60 | 3.2 | 0.0 | 0.00 | 0.00 | 0.00 | 72 | |
| 20260506181957 | 17 | 190 | 3.2 | 0.0 | 0.00 | 0.00 | 0.00 | 67 | |
| 20260506171907 | 17 | 170 | 3.2 | 0.0 | 0.00 | 0.00 | 0.00 | 63 | |
| 20260506162125 | 18 | 280 | 8.0 | 0.0 | 0.00 | 0.00 | 0.00 | 55 | |
| 20260506151939 | 20 | 250 | 3.2 | 0.0 | 0.00 | 0.00 | 0.00 | 49 | |
| 20260506141925 | 17 | 160 | 11.3 | 0.0 | 0.00 | 0.00 | 0.00 | 59 | |
| 20260506131926 | 17 | 200 | 11.3 | 0.0 | 0.00 | 0.00 | 0.00 | 59 | |
| 20260506121925 | 17 | 190 | 11.3 | 0.0 | 0.00 | 0.00 | 0.00 | 63 | |
| 20260506111910 | 17 | 180 | 11.3 | 0.0 | 0.00 | 0.00 | 0.00 | 67 | |
| 20260506102112 | 16 | 180 | 14.5 | 0.0 | 0.00 | 0.00 | 0.00 | 67 | |
| 20260506091910 | 16 | 200 | 19.3 | 0.0 | 0.00 | 0.00 | 0.00 | 67 | |
| 20260506081908 | 15 | 200 | 14.5 | 0.0 | 0.00 | 0.00 | 0.00 | 72 | |
| 20260506071910 | 13 | 230 | 14.5 | 0.0 | 0.00 | 0.00 | 0.00 | 76 | |
| 20260506061911 | 12 | 180 | 14.5 | 0.0 | 0.00 | 0.00 | 0.00 | 82 | |
| 20260506042109 | 12 | 120 | 8.0 | 0.0 | 0.00 | 0.00 | 0.00 | 87 |